Time;durP1;ratioP1;P1;durP2;ratioP2;P2;SDS_P1;SDS_P2;PMS_P1;PMS_P2;Temp;Humidity;BMP_temperature;BMP_pressure;BME280_temperature;BME280_humidity;BME280_pressure;Samples;Min_cycle;Max_cycle;Signal;HPM_P1;HPM_P2
2023/06/29 00:02:03;303170.00;1.01;523.37;0.00;0.00;0.62;;;;;22.40;1.00;;;;;;2278129;40;3619;-89
2023/06/29 00:04:32;518234.00;1.73;893.22;0.00;0.00;0.62;;;;;22.50;1.00;;;;;;2272561;61;887;-87
2023/06/29 00:09:30;497211.00;1.66;857.02;0.00;0.00;0.62;;;;;22.80;1.00;;;;;;2270312;61;1420;-90
2023/06/29 00:14:30;208786.00;0.70;361.05;0.00;0.00;0.62;;;;;23.20;1.00;;;;;;2278062;40;3530;-87
2023/06/29 00:16:57;168840.00;0.56;292.27;0.00;0.00;0.62;;;;;23.10;1.00;;;;;;2273173;61;1276;-92
2023/06/29 00:19:24;283732.00;0.95;489.95;0.00;0.00;0.62;;;;;23.10;1.00;;;;;;2332778;55;3916;-89
2023/06/29 00:21:51;200158.00;0.67;346.20;0.00;0.00;0.62;;;;;23.00;1.00;;;;;;2273126;61;972;-91
2023/06/29 00:24:18;423044.00;1.41;729.42;0.00;0.00;0.62;;;;;22.80;1.00;;;;;;2273103;61;1542;-91
2023/06/29 00:26:46;461382.00;1.54;795.36;22020.00;0.07;38.77;;;;;22.60;1.00;;;;;;2289106;55;3781;-92
2023/06/29 00:29:13;377435.00;1.26;651.02;78428.00;0.26;136.32;;;;;22.50;1.00;;;;;;2272287;61;1434;-89
2023/06/29 00:31:40;374494.00;1.25;645.96;77490.00;0.26;134.70;;;;;22.40;1.00;;;;;;2272401;61;1920;-89
2023/06/29 00:36:40;479297.00;1.60;826.19;0.00;0.00;0.62;;;;;22.20;1.00;;;;;;2269977;61;1369;-90
2023/06/29 00:39:07;418902.00;1.40;722.30;0.00;0.00;0.62;;;;;22.20;1.00;;;;;;2268036;61;1015;-87
2023/06/29 00:41:35;204121.00;0.68;353.02;0.00;0.00;0.62;;;;;22.10;1.00;;;;;;2268278;61;1098;-88
2023/06/29 00:46:33;513999.00;1.71;885.93;0.00;0.00;0.62;;;;;22.10;1.00;;;;;;2270073;61;1397;-89
2023/06/29 00:49:01;320947.00;1.07;553.93;0.00;0.00;0.62;;;;;22.30;1.00;;;;;;2268346;61;1606;-87
2023/06/29 00:51:29;466476.00;1.55;804.13;61471.00;0.20;107.02;;;;;22.20;1.00;;;;;;2268382;61;1921;-89
2023/06/29 00:53:56;166482.00;0.55;288.21;0.00;0.00;0.62;;;;;22.00;1.00;;;;;;2268314;61;1596;-89
2023/06/29 00:56:23;324818.00;1.08;560.58;21163.00;0.07;37.28;;;;;22.10;1.00;;;;;;2279875;55;3801;-89
2023/06/29 00:58:50;233435.00;0.78;403.46;0.00;0.00;0.62;;;;;22.30;1.00;;;;;;2273058;61;1382;-91
2023/06/29 01:01:17;157780.00;0.53;273.21;0.00;0.00;0.62;;;;;22.60;1.00;;;;;;2272385;61;1616;-89
2023/06/29 01:03:46;304384.00;1.01;525.46;32130.00;0.11;56.27;;;;;22.70;1.00;;;;;;2272355;61;1037;-88
2023/06/29 01:06:20;275380.00;0.92;475.59;0.00;0.00;0.62;;;;;22.70;1.00;;;;;;2272353;61;1734;-89
2023/06/29 01:11:17;334089.00;1.11;576.51;0.00;0.00;0.62;;;;;22.60;1.00;;;;;;2270698;61;1938;-89
2023/06/29 01:13:46;213289.00;0.71;368.80;0.00;0.00;0.62;;;;;22.80;1.00;;;;;;2268296;61;1021;-89
2023/06/29 01:16:15;182266.00;0.61;315.39;0.00;0.00;0.62;;;;;22.70;1.00;;;;;;2278801;40;3623;-90
2023/06/29 01:18:46;322650.00;1.08;556.85;0.00;0.00;0.62;;;;;23.00;1.00;;;;;;2272236;61;1725;-89
2023/06/29 01:21:15;181638.00;0.61;314.31;0.00;0.00;0.62;;;;;22.90;1.00;;;;;;2272362;61;1033;-88
2023/06/29 01:23:46;468141.00;1.56;806.99;0.00;0.00;0.62;;;;;23.10;1.00;;;;;;2272348;61;998;-88
2023/06/29 01:26:16;111197.00;0.37;192.90;0.00;0.00;0.62;;;;;23.30;1.00;;;;;;2272268;61;1576;-88
2023/06/29 01:28:43;242249.00;0.81;418.62;0.00;0.00;0.62;;;;;22.80;1.00;;;;;;2272325;61;2144;-87
2023/06/29 01:31:11;500365.00;1.67;862.45;75534.00;0.25;131.32;;;;;22.90;1.00;;;;;;2272135;61;1915;-89
2023/06/29 01:33:38;350857.00;1.17;605.33;0.00;0.00;0.62;;;;;22.60;1.00;;;;;;2272072;61;2211;-89
2023/06/29 01:36:17;297702.00;0.99;513.97;34276.00;0.11;59.98;;;;;22.20;1.00;;;;;;2272205;61;1605;-89
2023/06/29 01:38:52;288545.00;0.96;498.23;0.00;0.00;0.62;;;;;21.90;1.00;;;;;;2271964;61;1341;-86
2023/06/29 01:41:24;388154.00;1.29;669.44;0.00;0.00;0.62;;;;;21.80;1.00;;;;;;2272295;61;1142;-88
2023/06/29 01:43:53;110878.00;0.37;192.34;0.00;0.00;0.62;;;;;21.80;1.00;;;;;;2272251;61;1614;-88
2023/06/29 01:46:21;161821.00;0.54;280.18;17507.00;0.06;30.95;;;;;22.00;1.00;;;;;;2272193;61;953;-88
2023/06/29 01:48:48;288672.00;0.96;498.45;0.00;0.00;0.62;;;;;21.90;1.00;;;;;;2272166;61;1426;-89
2023/06/29 01:51:15;189330.00;0.63;327.55;0.00;0.00;0.62;;;;;21.70;1.00;;;;;;2273800;55;3774;-89
2023/06/29 01:56:10;366362.00;1.22;631.98;0.00;0.00;0.62;;;;;21.50;1.00;;;;;;2270392;61;1304;-88
2023/06/29 01:58:38;186374.00;0.62;322.47;0.00;0.00;0.62;;;;;21.70;1.00;;;;;;2267977;61;1368;-87
2023/06/29 02:03:33;512087.00;1.71;882.64;0.00;0.00;0.62;;;;;21.80;1.00;;;;;;2270561;61;1325;-89
2023/06/29 02:06:00;270694.00;0.90;467.54;14946.00;0.05;26.52;;;;;21.80;1.00;;;;;;2268148;61;1072;-88
2023/06/29 02:08:27;215233.00;0.72;372.14;0.00;0.00;0.62;;;;;21.60;1.00;;;;;;2268122;61;1322;-86
2023/06/29 02:10:54;276031.00;0.92;476.71;0.00;0.00;0.62;;;;;21.80;1.00;;;;;;2268096;61;1992;-87
2023/06/29 02:13:21;493237.00;1.64;850.18;27980.00;0.09;49.09;;;;;21.60;1.00;;;;;;2268039;61;1720;-88
2023/06/29 02:15:49;458438.00;1.53;790.30;67283.00;0.22;117.07;;;;;21.60;1.00;;;;;;2268102;61;1143;-89
2023/06/29 02:18:16;460568.00;1.54;793.96;42694.00;0.14;74.55;;;;;21.10;1.00;;;;;;2268135;61;1624;-88
2023/06/29 02:20:43;270786.00;0.90;467.70;0.00;0.00;0.62;;;;;20.80;1.00;;;;;;2268110;61;990;-87
2023/06/29 02:23:10;433835.00;1.45;747.98;50146.00;0.17;87.44;;;;;20.80;1.00;;;;;;2260988;61;1053;-87
2023/06/29 02:25:37;168031.00;0.56;290.87;0.00;0.00;0.62;;;;;21.00;1.00;;;;;;2268137;61;1020;-88
2023/06/29 02:28:04;272106.00;0.91;469.96;0.00;0.00;0.62;;;;;21.20;1.00;;;;;;2268035;61;1416;-87
2023/06/29 02:30:31;227388.00;0.76;393.06;0.00;0.00;0.62;;;;;21.60;1.00;;;;;;2267903;61;1653;-88
2023/06/29 02:33:00;188392.00;0.63;325.94;0.00;0.00;0.62;;;;;21.70;1.00;;;;;;2267960;61;2023;-88
2023/06/29 02:35:26;247394.00;0.82;427.47;0.00;0.00;0.62;;;;;21.90;1.00;;;;;;2268139;61;907;-87
2023/06/29 02:37:53;180350.00;0.60;312.09;0.00;0.00;0.62;;;;;21.60;1.00;;;;;;2268024;61;1393;-89
2023/06/29 02:40:20;277874.00;0.93;479.88;0.00;0.00;0.62;;;;;21.60;1.00;;;;;;2268029;61;1000;-88
2023/06/29 02:42:47;188671.00;0.63;326.42;0.00;0.00;0.62;;;;;21.80;1.00;;;;;;2267921;61;2182;-90
2023/06/29 02:45:14;176801.00;0.59;305.98;0.00;0.00;0.62;;;;;21.60;1.00;;;;;;2268125;61;916;-89
2023/06/29 02:47:41;230495.00;0.77;398.40;0.00;0.00;0.62;;;;;21.90;1.00;;;;;;2268038;61;1368;-88
2023/06/29 02:50:10;390408.00;1.30;673.32;0.00;0.00;0.62;;;;;22.00;1.00;;;;;;2268023;61;1020;-89
2023/06/29 02:52:37;147100.00;0.49;254.81;0.00;0.00;0.62;;;;;22.10;1.00;;;;;;2267965;61;1995;-89
2023/06/29 02:55:05;158970.00;0.53;275.26;0.00;0.00;0.62;;;;;22.20;1.00;;;;;;2268039;61;946;-88
2023/06/29 02:57:32;276483.00;0.92;477.49;0.00;0.00;0.62;;;;;22.50;1.00;;;;;;2267949;61;1671;-88
2023/06/29 02:59:59;289762.00;0.97;500.32;0.00;0.00;0.62;;;;;22.50;1.00;;;;;;2267882;61;1707;-89
2023/06/29 03:02:26;171552.00;0.57;296.94;0.00;0.00;0.62;;;;;22.60;1.00;;;;;;2268162;61;1706;-89
2023/06/29 03:04:52;559176.00;1.86;963.78;26875.00;0.09;47.17;;;;;22.50;1.00;;;;;;2268268;61;1685;-89
2023/06/29 03:07:21;244704.00;0.82;422.84;0.00;0.00;0.62;;;;;22.40;1.00;;;;;;2268249;61;1293;-88
2023/06/29 03:09:48;234774.00;0.78;405.76;0.00;0.00;0.62;;;;;22.30;1.00;;;;;;2268363;61;988;-89
2023/06/29 03:12:15;185110.00;0.62;320.29;0.00;0.00;0.62;;;;;22.00;1.00;;;;;;2268245;61;1941;-88
2023/06/29 03:14:41;233582.00;0.78;403.71;0.00;0.00;0.62;;;;;21.80;1.00;;;;;;2268354;61;1017;-89
2023/06/29 03:17:09;261668.00;0.87;452.02;0.00;0.00;0.62;;;;;21.70;1.00;;;;;;2268190;61;1567;-87
2023/06/29 03:19:35;509200.00;1.70;877.66;164684.00;0.55;285.11;;;;;21.30;1.00;;;;;;2268250;61;2098;-85
2023/06/29 03:22:02;214730.00;0.72;371.28;0.00;0.00;0.62;;;;;21.20;1.00;;;;;;2268155;61;997;-87
2023/06/29 03:24:30;267593.00;0.89;462.21;0.00;0.00;0.62;;;;;21.30;1.00;;;;;;2268164;61;1699;-88
2023/06/29 03:26:57;113657.00;0.38;197.14;0.00;0.00;0.62;;;;;21.30;1.00;;;;;;2268117;61;1362;-87
2023/06/29 03:29:24;70691.00;0.24;122.95;0.00;0.00;0.62;;;;;20.80;1.00;;;;;;2268235;61;1022;-87
2023/06/29 03:31:51;197527.00;0.66;341.67;0.00;0.00;0.62;;;;;21.00;1.00;;;;;;2268142;61;2263;-87
2023/06/29 03:34:18;141456.00;0.47;245.08;0.00;0.00;0.62;;;;;21.00;1.00;;;;;;2268195;61;1130;-87
2023/06/29 03:36:45;162045.00;0.54;280.56;0.00;0.00;0.62;;;;;20.90;1.00;;;;;;2268219;61;1280;-90
2023/06/29 03:39:12;270573.00;0.90;467.33;0.00;0.00;0.62;;;;;20.70;1.00;;;;;;2268214;61;1568;-89
2023/06/29 03:41:40;221593.00;0.74;383.08;0.00;0.00;0.62;;;;;20.60;1.00;;;;;;2268195;61;1713;-90
2023/06/29 03:44:07;164512.00;0.55;284.81;14152.00;0.05;25.14;;;;;20.60;1.00;;;;;;2268145;61;931;-88
2023/06/29 03:46:34;147294.00;0.49;255.14;0.00;0.00;0.62;;;;;21.00;1.00;;;;;;2268085;61;1734;-88
2023/06/29 03:49:01;292722.00;0.98;505.41;0.00;0.00;0.62;;;;;21.10;1.00;;;;;;2268120;61;1138;-88
2023/06/29 03:51:28;181803.00;0.61;314.59;0.00;0.00;0.62;;;;;21.20;1.00;;;;;;2268183;61;1910;-90
2023/06/29 03:53:55;246495.00;0.82;425.92;15766.00;0.05;27.94;;;;;21.20;1.00;;;;;;2268135;61;1047;-88
2023/06/29 03:56:22;222335.00;0.74;384.36;0.00;0.00;0.62;;;;;21.40;1.00;;;;;;2268094;61;1105;-89
2023/06/29 03:58:50;240246.00;0.80;415.17;0.00;0.00;0.62;;;;;21.50;1.00;;;;;;2268075;61;1731;-88
2023/06/29 04:01:17;448307.00;1.49;772.87;42041.00;0.14;73.42;;;;;21.40;1.00;;;;;;2311532;40;3597;-90
2023/06/29 04:03:44;244882.00;0.82;423.15;0.00;0.00;0.62;;;;;21.60;1.00;;;;;;2272276;61;1044;-88
2023/06/29 04:08:38;244500.00;0.81;422.49;0.00;0.00;0.62;;;;;21.40;1.00;;;;;;2269586;61;1403;-88
2023/06/29 04:11:05;131705.00;0.44;228.27;0.00;0.00;0.62;;;;;21.10;1.00;;;;;;2268066;61;1744;-88
2023/06/29 04:18:35;309109.00;1.03;533.58;0.00;0.00;0.62;;;;;20.30;1.00;;;;;;1910381;40;3454;-89
2023/06/29 04:21:02;142899.00;0.48;247.57;0.00;0.00;0.62;;;;;20.50;1.00;;;;;;2272128;61;1015;-87
2023/06/29 04:30:54;423177.00;1.41;729.65;0.00;0.00;0.62;;;;;20.00;1.00;;;;;;2270639;61;1405;-87
2023/06/29 04:33:21;167239.00;0.56;289.51;0.00;0.00;0.62;;;;;20.30;1.00;;;;;;2268384;61;2009;-89
2023/06/29 04:35:49;195249.00;0.65;337.75;0.00;0.00;0.62;;;;;20.70;1.00;;;;;;2268664;61;1593;-88
2023/06/29 04:38:17;114169.00;0.38;198.02;0.00;0.00;0.62;;;;;20.50;1.00;;;;;;2283269;40;3644;-86
2023/06/29 04:40:45;62742.00;0.21;109.22;0.00;0.00;0.62;;;;;20.60;1.00;;;;;;2272569;61;1684;-87
2023/06/29 04:50:38;535034.00;1.78;922.17;0.00;0.00;0.62;;;;;20.50;1.00;;;;;;2021399;40;3442;-86
2023/06/29 04:53:09;233155.00;0.78;402.98;13676.00;0.05;24.32;;;;;20.40;1.00;;;;;;2291234;40;3434;-90
2023/06/29 04:58:04;445741.00;1.49;768.46;0.00;0.00;0.62;;;;;20.70;1.00;;;;;;2275232;55;3678;-88
2023/06/29 05:10:27;404680.00;1.35;697.85;0.00;0.00;0.62;;;;;21.80;1.00;;;;;;2270953;61;1325;-89
2023/06/29 05:27:48;305850.00;1.02;527.98;0.00;0.00;0.62;;;;;21.40;1.00;;;;;;2300500;55;3786;-89
2023/06/29 05:30:16;39099.00;0.13;68.33;0.00;0.00;0.62;;;;;21.70;1.00;;;;;;2272467;61;1116;-87
2023/06/29 05:35:12;548387.00;1.83;945.18;25095.00;0.08;44.09;;;;;22.50;1.00;;;;;;2274036;55;3651;-89
2023/06/29 05:42:39;504416.00;1.68;869.43;0.00;0.00;0.62;;;;;23.30;1.00;;;;;;2270166;61;1202;-88
2023/06/29 05:45:08;108362.00;0.36;188.00;0.00;0.00;0.62;;;;;24.40;1.00;;;;;;2268522;61;1598;-88
2023/06/29 05:47:35;62800.00;0.21;109.32;0.00;0.00;0.62;;;;;25.90;1.00;;;;;;2268422;61;1394;-88
2023/06/29 05:50:04;114118.00;0.38;197.94;0.00;0.00;0.62;;;;;27.40;1.00;;;;;;2268441;61;1119;-89
2023/06/29 05:52:33;24911.00;0.08;43.77;0.00;0.00;0.62;;;;;28.90;1.00;;;;;;2268419;61;1993;-90
2023/06/29 05:55:00;26575.00;0.09;46.65;0.00;0.00;0.62;;;;;30.00;1.00;;;;;;2268325;61;2211;-88
2023/06/29 05:57:27;46093.00;0.15;80.43;0.00;0.00;0.62;;;;;30.80;1.00;;;;;;2268492;61;1767;-88
2023/06/29 05:59:54;88816.00;0.30;154.26;0.00;0.00;0.62;;;;;30.80;1.00;;;;;;2268452;61;1018;-89
2023/06/29 06:02:23;41715.00;0.14;72.86;0.00;0.00;0.62;;;;;31.70;1.00;;;;;;2286555;40;3767;-88
2023/06/29 06:04:50;66946.00;0.22;116.48;0.00;0.00;0.62;;;;;32.60;1.00;;;;;;2272478;61;1056;-89
2023/06/29 06:07:28;364592.00;1.22;628.94;105183.00;0.35;182.52;;;;;32.10;1.00;;;;;;2272413;61;2259;-89
2023/06/29 06:09:55;67139.00;0.22;116.82;0.00;0.00;0.62;;;;;32.30;1.00;;;;;;2272458;61;1181;-89
2023/06/29 06:12:23;28906.00;0.10;50.69;0.00;0.00;0.62;;;;;33.00;1.00;;;;;;2272505;61;1996;-88
2023/06/29 06:14:50;3622.00;0.01;6.90;0.00;0.00;0.62;;;;;33.30;1.00;;;;;;2272490;61;989;-89
2023/06/29 06:19:47;180830.00;0.60;312.92;0.00;0.00;0.62;;;;;32.20;1.00;;;;;;2270792;61;1366;-88
2023/06/29 06:22:14;43052.00;0.14;75.17;0.00;0.00;0.62;;;;;32.10;1.00;;;;;;2268455;61;972;-89
2023/06/29 06:24:41;36691.00;0.12;64.16;0.00;0.00;0.62;;;;;32.60;1.00;;;;;;2268368;61;1116;-88
2023/06/29 06:27:09;249913.00;0.83;431.80;0.00;0.00;0.62;;;;;33.20;1.00;;;;;;2268351;61;1731;-91
2023/06/29 06:29:36;0.00;0.00;0.62;0.00;0.00;0.62;;;;;34.20;1.00;;;;;;2268350;61;1769;-88
2023/06/29 06:32:04;0.00;0.00;0.62;0.00;0.00;0.62;;;;;35.10;1.00;;;;;;2268251;61;2006;-90
2023/06/29 06:34:32;0.00;0.00;0.62;0.00;0.00;0.62;;;;;35.80;1.00;;;;;;2268454;61;974;-90
2023/06/29 06:37:01;27501.00;0.09;48.26;0.00;0.00;0.62;;;;;35.40;1.00;;;;;;2268370;61;1309;-88
2023/06/29 06:39:32;318815.00;1.06;550.26;59473.00;0.20;103.57;;;;;36.40;1.00;;;;;;2268473;61;973;-88
2023/06/29 06:41:59;38807.00;0.13;67.82;0.00;0.00;0.62;;;;;36.10;1.00;;;;;;2268393;61;1619;-88
2023/06/29 06:44:26;0.00;0.00;0.62;0.00;0.00;0.62;;;;;35.60;1.00;;;;;;2267661;61;1748;-88
2023/06/29 06:46:53;50187.00;0.17;87.51;0.00;0.00;0.62;;;;;35.40;1.00;;;;;;2268155;61;1576;-88
2023/06/29 06:49:20;66096.00;0.22;115.01;0.00;0.00;0.62;;;;;35.50;1.00;;;;;;2268351;61;1079;-90
2023/06/29 06:51:47;258059.00;0.86;445.81;62695.00;0.21;109.14;;;;;35.80;1.00;;;;;;2268354;61;1042;-89
2023/06/29 06:54:15;117410.00;0.39;203.61;0.00;0.00;0.62;;;;;35.90;1.00;;;;;;2268313;61;1808;-90
2023/06/29 06:56:42;0.00;0.00;0.62;0.00;0.00;0.62;;;;;35.70;1.00;;;;;;2268292;61;1655;-91
2023/06/29 06:59:09;129846.00;0.43;225.06;0.00;0.00;0.62;;;;;36.10;1.00;;;;;;2268289;61;973;-89
2023/06/29 07:01:41;104927.00;0.35;182.08;0.00;0.00;0.62;;;;;36.00;1.00;;;;;;2268321;61;1634;-88
2023/06/29 07:04:08;51342.00;0.17;89.51;0.00;0.00;0.62;;;;;36.40;1.00;;;;;;2268175;61;1610;-88
2023/06/29 07:06:35;122909.00;0.41;213.10;0.00;0.00;0.62;;;;;36.20;1.00;;;;;;2268243;61;1276;-90
2023/06/29 07:09:03;53487.00;0.18;93.22;0.00;0.00;0.62;;;;;36.30;1.00;;;;;;2268453;61;991;-90
2023/06/29 07:11:31;125217.00;0.42;217.08;0.00;0.00;0.62;;;;;36.40;1.00;;;;;;2268309;61;1751;-88
2023/06/29 07:13:58;0.00;0.00;0.62;0.00;0.00;0.62;;;;;36.60;1.00;;;;;;2268328;61;2001;-89
2023/06/29 07:16:25;0.00;0.00;0.62;0.00;0.00;0.62;;;;;36.30;1.00;;;;;;2268341;61;1652;-90
2023/06/29 07:19:05;53694.00;0.18;93.57;0.00;0.00;0.62;;;;;35.80;1.00;;;;;;2268210;61;1613;-87
2023/06/29 07:21:32;70344.00;0.23;122.35;0.00;0.00;0.62;;;;;37.10;1.00;;;;;;2268282;61;1575;-89
2023/06/29 07:24:00;215308.00;0.72;372.27;0.00;0.00;0.62;;;;;36.80;1.00;;;;;;2268293;61;1618;-90
2023/06/29 07:26:27;90208.00;0.30;156.67;0.00;0.00;0.62;;;;;37.60;1.00;;;;;;2268249;61;1749;-91
2023/06/29 07:28:55;238962.00;0.80;412.97;0.00;0.00;0.62;;;;;38.40;1.00;;;;;;2268252;61;1546;-89
2023/06/29 07:31:26;92750.00;0.31;161.06;9990.00;0.03;17.93;;;;;39.10;1.00;;;;;;2268198;61;1623;-89
2023/06/29 07:33:53;72639.00;0.24;126.32;0.00;0.00;0.62;;;;;39.30;1.00;;;;;;2292245;40;3426;-90
2023/06/29 07:36:20;203549.00;0.68;352.03;0.00;0.00;0.62;;;;;38.90;1.00;;;;;;2271990;61;1657;-90
2023/06/29 07:38:47;48280.00;0.16;84.21;0.00;0.00;0.62;;;;;39.70;1.00;;;;;;2272166;61;1289;-89
2023/06/29 07:41:15;0.00;0.00;0.62;0.00;0.00;0.62;;;;;39.60;1.00;;;;;;2272262;61;1710;-89
2023/06/29 07:43:42;380177.00;1.27;655.73;100633.00;0.34;174.66;;;;;38.40;1.00;;;;;;2272259;61;1710;-88
2023/06/29 07:46:16;260377.00;0.87;449.80;46270.00;0.15;80.73;;;;;37.00;1.00;;;;;;2272167;61;1174;-89
2023/06/29 07:48:43;314786.00;1.05;543.34;94788.00;0.32;164.57;;;;;36.70;1.00;;;;;;2272226;61;1439;-88
2023/06/29 07:51:10;0.00;0.00;0.62;0.00;0.00;0.62;;;;;36.20;1.00;;;;;;2272267;61;981;-89
2023/06/29 07:53:38;106893.00;0.36;185.47;0.00;0.00;0.62;;;;;35.80;1.00;;;;;;2272148;61;2004;-89
2023/06/29 07:56:05;69982.00;0.23;121.73;0.00;0.00;0.62;;;;;35.30;1.00;;;;;;2272245;61;940;-88
2023/06/29 07:58:32;191931.00;0.64;332.03;0.00;0.00;0.62;;;;;34.60;1.00;;;;;;2272879;61;1397;-90
2023/06/29 08:03:29;205580.00;0.69;355.53;0.00;0.00;0.62;;;;;35.00;1.00;;;;;;2270491;61;1432;-88
2023/06/29 08:05:57;60528.00;0.20;105.39;0.00;0.00;0.62;;;;;34.90;1.00;;;;;;2268834;61;1127;-89
2023/06/29 08:08:28;270324.00;0.90;466.90;99355.00;0.33;172.46;;;;;34.80;1.00;;;;;;2268910;61;1750;-89
2023/06/29 08:10:56;76900.00;0.26;133.68;0.00;0.00;0.62;;;;;35.40;1.00;;;;;;2268807;61;1600;-88
2023/06/29 08:13:23;92584.00;0.31;160.77;0.00;0.00;0.62;;;;;36.20;1.00;;;;;;2268797;61;2002;-89
2023/06/29 08:18:18;133426.00;0.44;231.24;0.00;0.00;0.62;;;;;35.50;1.00;;;;;;2270783;61;1401;-88
2023/06/29 08:20:46;25847.00;0.09;45.39;0.00;0.00;0.62;;;;;35.80;1.00;;;;;;2268810;61;1590;-88
2023/06/29 08:23:14;11755.00;0.04;20.99;0.00;0.00;0.62;;;;;35.00;1.00;;;;;;2268797;61;1132;-87
2023/06/29 08:25:41;27390.00;0.09;48.07;0.00;0.00;0.62;;;;;35.20;1.00;;;;;;2268941;61;1025;-89
2023/06/29 08:28:08;21769.00;0.07;38.33;0.00;0.00;0.62;;;;;34.50;1.00;;;;;;2268863;61;1386;-87
2023/06/29 08:30:35;0.00;0.00;0.62;0.00;0.00;0.62;;;;;34.50;1.00;;;;;;2268779;61;1721;-87
2023/06/29 08:33:02;83530.00;0.28;145.13;0.00;0.00;0.62;;;;;34.60;1.00;;;;;;2268742;61;1996;-89
2023/06/29 08:35:29;6809.00;0.02;12.42;0.00;0.00;0.62;;;;;35.20;1.00;;;;;;2268705;61;1687;-88
2023/06/29 08:37:57;0.00;0.00;0.62;0.00;0.00;0.62;;;;;35.80;1.00;;;;;;2268835;61;1374;-88
2023/06/29 08:40:26;0.00;0.00;0.62;0.00;0.00;0.62;;;;;35.90;1.00;;;;;;2268764;61;1018;-89
2023/06/29 08:42:53;57291.00;0.19;99.79;0.00;0.00;0.62;;;;;35.30;1.00;;;;;;2268809;61;945;-89
2023/06/29 08:45:21;7704.00;0.03;13.97;0.00;0.00;0.62;;;;;35.30;1.00;;;;;;2268789;61;1108;-87
2023/06/29 08:47:51;0.00;0.00;0.62;0.00;0.00;0.62;;;;;34.40;1.00;;;;;;2268659;61;1738;-86
2023/06/29 08:50:24;19258.00;0.06;33.99;0.00;0.00;0.62;;;;;33.90;1.00;;;;;;2268774;61;1099;-88
2023/06/29 08:52:51;189264.00;0.63;327.44;34560.00;0.12;60.48;;;;;34.30;1.00;;;;;;2268793;61;1974;-89
2023/06/29 08:55:20;0.00;0.00;0.62;0.00;0.00;0.62;;;;;35.60;1.00;;;;;;2268765;61;1048;-91
2023/06/29 08:57:48;63053.00;0.21;109.75;0.00;0.00;0.62;;;;;36.20;1.00;;;;;;2268546;61;1324;-88
2023/06/29 09:00:16;260885.00;0.87;450.67;61156.00;0.20;106.48;;;;;36.80;1.00;;;;;;2268791;61;929;-89
2023/06/29 09:02:45;63209.00;0.21;110.02;0.00;0.00;0.62;;;;;36.20;1.00;;;;;;2268724;61;1071;-88
2023/06/29 09:05:14;0.00;0.00;0.62;0.00;0.00;0.62;;;;;36.40;1.00;;;;;;2268754;61;2289;-88
2023/06/29 09:07:41;100368.00;0.33;174.21;34526.00;0.12;60.42;;;;;36.00;1.00;;;;;;2268615;61;1603;-88
2023/06/29 09:10:10;321522.00;1.07;554.91;45055.00;0.15;78.63;;;;;35.90;1.00;;;;;;2268749;61;1072;-87
2023/06/29 09:12:39;0.00;0.00;0.62;0.00;0.00;0.62;;;;;36.10;1.00;;;;;;2268637;61;1993;-88
2023/06/29 09:15:09;86302.00;0.29;149.92;0.00;0.00;0.62;;;;;36.70;1.00;;;;;;2268657;61;1008;-89
2023/06/29 09:17:36;0.00;0.00;0.62;0.00;0.00;0.62;;;;;35.90;1.00;;;;;;2268642;61;1786;-89
2023/06/29 09:20:15;0.00;0.00;0.62;0.00;0.00;0.62;;;;;36.70;1.00;;;;;;2268681;61;1159;-88
2023/06/29 09:22:43;8297.00;0.03;15.00;0.00;0.00;0.62;;;;;36.80;1.00;;;;;;2268550;61;1624;-89
2023/06/29 09:25:13;7549.00;0.03;13.70;0.00;0.00;0.62;;;;;37.20;1.00;;;;;;2268634;61;1750;-89
2023/06/29 09:27:41;0.00;0.00;0.62;0.00;0.00;0.62;;;;;37.00;1.00;;;;;;2268471;61;1476;-89
2023/06/29 09:30:09;2505.00;0.01;4.96;0.00;0.00;0.62;;;;;37.00;1.00;;;;;;2268590;61;1578;-88
2023/06/29 09:32:39;8600.00;0.03;15.52;0.00;0.00;0.62;;;;;36.80;1.00;;;;;;2268719;61;1024;-89
2023/06/29 09:35:07;0.00;0.00;0.62;0.00;0.00;0.62;;;;;36.00;1.00;;;;;;2268589;61;1591;-88
2023/06/29 09:37:34;69777.00;0.23;121.38;0.00;0.00;0.62;;;;;35.10;1.00;;;;;;2268460;61;1409;-89
2023/06/29 09:40:05;55549.00;0.19;96.78;0.00;0.00;0.62;;;;;34.60;1.00;;;;;;2268592;61;1786;-90
2023/06/29 09:42:36;20891.00;0.07;36.81;0.00;0.00;0.62;;;;;34.50;1.00;;;;;;2268674;61;1180;-87
2023/06/29 09:47:35;71239.00;0.24;123.90;0.00;0.00;0.62;;;;;34.40;1.00;;;;;;2270136;61;1365;-90
2023/06/29 09:50:02;7401.00;0.02;13.45;0.00;0.00;0.62;;;;;35.00;1.00;;;;;;2268595;61;1593;-89
2023/06/29 09:52:44;0.00;0.00;0.62;0.00;0.00;0.62;;;;;34.70;1.00;;;;;;2268601;61;905;-87
2023/06/29 09:55:11;45831.00;0.15;79.98;0.00;0.00;0.62;;;;;34.50;1.00;;;;;;2268612;61;1244;-89
2023/06/29 09:57:40;0.00;0.00;0.62;0.00;0.00;0.62;;;;;34.80;1.00;;;;;;2268304;61;1361;-87
2023/06/29 10:02:36;120951.00;0.40;209.72;0.00;0.00;0.62;;;;;35.10;1.00;;;;;;2270459;61;1515;-88
2023/06/29 10:05:03;0.00;0.00;0.62;0.00;0.00;0.62;;;;;34.70;1.00;;;;;;2268731;61;1009;-89
2023/06/29 10:07:31;31417.00;0.10;55.04;0.00;0.00;0.62;;;;;34.40;1.00;;;;;;2268633;61;1684;-89
2023/06/29 10:10:00;268722.00;0.90;464.15;0.00;0.00;0.62;;;;;34.00;1.00;;;;;;2268607;61;1543;-89
2023/06/29 10:12:28;39815.00;0.13;69.57;0.00;0.00;0.62;;;;;34.40;1.00;;;;;;2268612;61;1168;-88
2023/06/29 10:14:59;52864.00;0.18;92.14;0.00;0.00;0.62;;;;;33.80;1.00;;;;;;2268486;61;2007;-90
2023/06/29 10:17:31;214681.00;0.72;371.19;0.00;0.00;0.62;;;;;34.00;1.00;;;;;;2268441;61;1715;-88
2023/06/29 10:20:02;26712.00;0.09;46.89;0.00;0.00;0.62;;;;;34.10;1.00;;;;;;2268325;61;1126;-88
2023/06/29 10:22:31;65490.00;0.22;113.97;0.00;0.00;0.62;;;;;34.30;1.00;;;;;;2268464;61;1187;-87
2023/06/29 10:25:03;3943.00;0.01;7.45;0.00;0.00;0.62;;;;;34.30;1.00;;;;;;2268463;61;1711;-89
2023/06/29 10:27:34;0.00;0.00;0.62;0.00;0.00;0.62;;;;;34.10;1.00;;;;;;2274174;55;3873;-87
2023/06/29 10:30:04;51935.00;0.17;90.53;0.00;0.00;0.62;;;;;34.00;1.00;;;;;;2272463;61;1471;-89
2023/06/29 10:32:32;0.00;0.00;0.62;0.00;0.00;0.62;;;;;34.00;1.00;;;;;;2272652;61;1143;-86
2023/06/29 10:35:09;132981.00;0.44;230.47;0.00;0.00;0.62;;;;;34.00;1.00;;;;;;2272696;61;1926;-89
2023/06/29 10:37:37;0.00;0.00;0.62;0.00;0.00;0.62;;;;;34.00;1.00;;;;;;2272667;61;1541;-89
2023/06/29 10:40:13;10810.00;0.04;19.35;0.00;0.00;0.62;;;;;34.20;1.00;;;;;;2272676;61;1720;-88
2023/06/29 10:42:56;12526.00;0.04;22.33;0.00;0.00;0.62;;;;;34.30;1.00;;;;;;2272511;61;1202;-89
2023/06/29 10:45:34;137369.00;0.46;238.04;0.00;0.00;0.62;;;;;34.60;1.00;;;;;;2272202;61;935;-89
2023/06/29 10:48:03;0.00;0.00;0.62;0.00;0.00;0.62;;;;;34.40;1.00;;;;;;2272294;61;1667;-87
2023/06/29 10:50:32;122617.00;0.41;212.60;0.00;0.00;0.62;;;;;34.70;1.00;;;;;;2272320;61;2031;-88
2023/06/29 10:53:01;226385.00;0.75;391.33;0.00;0.00;0.62;;;;;34.80;1.00;;;;;;2272457;61;908;-86
2023/06/29 10:55:38;292346.00;0.97;504.76;167.00;0.00;0.91;;;;;34.70;1.00;;;;;;2271936;61;2057;-89
2023/06/29 10:58:14;85288.00;0.28;148.17;0.00;0.00;0.62;;;;;34.50;1.00;;;;;;2272353;61;1613;-88
2023/06/29 11:00:42;47109.00;0.16;82.19;0.00;0.00;0.62;;;;;34.50;1.00;;;;;;2272233;61;1537;-87
2023/06/29 11:03:10;417030.00;1.39;719.08;0.00;0.00;0.62;;;;;34.70;1.00;;;;;;2272279;61;1547;-87
2023/06/29 11:05:39;252247.00;0.84;435.82;0.00;0.00;0.62;;;;;34.60;1.00;;;;;;2279038;56;3782;-89
2023/06/29 11:08:08;174125.00;0.58;301.37;0.00;0.00;0.62;;;;;34.50;1.00;;;;;;2272235;61;1713;-88
2023/06/29 11:10:36;416280.00;1.39;717.79;0.00;0.00;0.62;;;;;34.10;1.00;;;;;;2272347;61;1143;-88
2023/06/29 11:13:08;306193.00;1.02;528.57;28013.00;0.09;49.14;;;;;33.40;1.00;;;;;;2272351;61;1108;-89
2023/06/29 11:15:36;671535.00;2.24;1157.91;11237.00;0.04;20.09;;;;;33.50;1.00;;;;;;2272408;61;1009;-88
2023/06/29 11:18:05;422617.00;1.41;728.69;39103.00;0.13;68.34;;;;;33.70;1.00;;;;;;2272177;61;1713;-88
2023/06/29 11:20:33;621087.00;2.07;1070.64;0.00;0.00;0.62;;;;;33.80;1.00;;;;;;2272244;61;1535;-89
2023/06/29 11:23:02;256686.00;0.86;443.45;8129.00;0.03;14.71;;;;;33.90;1.00;;;;;;2272239;61;1266;-88
2023/06/29 11:27:59;701263.00;2.34;1209.43;0.00;0.00;0.62;;;;;33.30;1.00;;;;;;2269749;61;1391;-90
2023/06/29 11:30:27;880444.00;2.93;1521.80;105622.00;0.35;183.28;;;;;32.90;1.00;;;;;;2267967;61;980;-87
2023/06/29 11:32:54;946879.00;3.16;1638.61;119217.00;0.40;206.73;;;;;33.00;1.00;;;;;;2267921;61;1544;-89
2023/06/29 11:35:23;1124511.00;3.75;1954.31;201245.00;0.67;348.07;;;;;33.20;1.00;;;;;;2268062;61;1918;-89
2023/06/29 11:40:24;1088997.00;3.63;1890.76;115975.00;0.39;201.14;;;;;34.00;1.00;;;;;;2270086;61;1455;-87